Time;durP1;ratioP1;P1;durP2;ratioP2;P2;SDS_P1;SDS_P2;PMS_P1;PMS_P2;Temp;Humidity;BMP_temperature;BMP_pressure;BME280_temperature;BME280_humidity;BME280_pressure;Samples;Min_cycle;Max_cycle;Signal;HPM_P1;HPM_P2
2023/01/06 00:01:49;;;;;;;;;;;11.00;99.90;;;;;;8385914;28;19929;-68
2023/01/06 00:05:55;;;;;;;;;;;11.00;99.90;;;;;;8377266;28;20019;-69
2023/01/06 00:09:57;;;;;;;;;;;11.00;99.90;;;;;;8375749;28;20249;-68
2023/01/06 00:13:59;;;;;;;;;;;11.00;99.90;;;;;;8387858;28;19931;-68
2023/01/06 00:18:00;;;;;;;;;;;11.00;99.90;;;;;;8384361;28;19924;-68
2023/01/06 00:22:03;;;;;;;;;;;10.80;99.90;;;;;;8381175;28;19939;-68
2023/01/06 00:26:06;;;;;;;;;;;10.70;99.90;;;;;;8382429;28;19968;-68
2023/01/06 00:30:08;;;;;;;;;;;10.70;99.90;;;;;;8386510;28;19956;-68
2023/01/06 00:34:10;;;;;;;;;;;10.70;99.90;;;;;;8393957;28;19974;-68
2023/01/06 00:38:11;;;;;;;;;;;10.60;99.90;;;;;;8377673;28;19935;-68
2023/01/06 00:42:13;;;;;;;;;;;10.60;99.90;;;;;;8383053;28;19924;-69
2023/01/06 00:46:15;;;;;;;;;;;10.60;99.90;;;;;;8385090;28;20265;-68
2023/01/06 00:50:16;;;;;;;;;;;10.60;99.90;;;;;;8386995;28;19933;-68
2023/01/06 00:54:18;;;;;;;;;;;10.70;99.90;;;;;;8372856;28;19924;-68
2023/01/06 00:58:20;;;;;;;;;;;10.70;99.90;;;;;;8381175;28;19928;-69
2023/01/06 01:02:21;;;;;;;;;;;10.80;99.90;;;;;;8382643;28;19960;-68
2023/01/06 01:06:23;;;;;;;;;;;10.80;99.90;;;;;;8377077;28;19924;-69
2023/01/06 01:10:25;;;;;;;;;;;10.90;99.90;;;;;;8386776;28;20372;-69
2023/01/06 01:14:26;;;;;;;;;;;10.90;99.90;;;;;;8384531;28;20273;-68
2023/01/06 01:18:28;;;;;;;;;;;10.90;99.90;;;;;;8383909;28;19972;-68
2023/01/06 01:22:30;;;;;;;;;;;10.90;99.90;;;;;;8381692;28;19925;-68
2023/01/06 01:26:31;;;;;;;;;;;11.00;99.90;;;;;;8388260;28;19931;-68
2023/01/06 01:30:33;;;;;;;;;;;11.00;99.90;;;;;;8388146;28;19931;-69
2023/01/06 01:34:35;;;;;;;;;;;10.90;99.90;;;;;;8384813;28;20407;-69
2023/01/06 01:38:36;;;;;;;;;;;10.90;99.90;;;;;;8386348;28;20343;-68
2023/01/06 01:42:38;;;;;;;;;;;11.00;99.90;;;;;;8387626;28;19924;-68
2023/01/06 01:46:41;;;;;;;;;;;10.90;99.90;;;;;;8400384;28;19928;-68
2023/01/06 01:50:45;;;;;;;;;;;10.90;99.90;;;;;;8389243;28;19928;-69
2023/01/06 01:54:48;;;;;;;;;;;10.90;99.90;;;;;;8379920;28;20269;-68
2023/01/06 01:58:55;;;;;;;;;;;10.90;99.90;;;;;;8381270;28;20315;-68
2023/01/06 02:02:57;;;;;;;;;;;11.00;99.90;;;;;;8372337;28;19929;-69
2023/01/06 02:06:59;;;;;;;;;;;11.00;99.90;;;;;;8372714;28;20356;-68
2023/01/06 02:11:01;;;;;;;;;;;11.00;99.90;;;;;;8375916;28;19929;-68
2023/01/06 02:15:12;;;;;;;;;;;11.00;99.90;;;;;;8372497;28;19924;-68
2023/01/06 02:19:23;;;;;;;;;;;11.00;99.90;;;;;;8369248;28;19928;-68
2023/01/06 02:23:24;;;;;;;;;;;11.00;99.90;;;;;;8379013;28;19952;-69
2023/01/06 02:27:33;;;;;;;;;;;10.90;99.90;;;;;;8380028;28;20387;-69
2023/01/06 02:31:34;;;;;;;;;;;10.90;99.90;;;;;;8383985;28;19935;-69
2023/01/06 02:35:48;;;;;;;;;;;11.00;99.90;;;;;;8373417;28;19990;-68
2023/01/06 02:39:50;;;;;;;;;;;11.00;99.90;;;;;;8376210;28;19924;-69
2023/01/06 02:43:57;;;;;;;;;;;11.00;99.90;;;;;;8379383;28;19929;-68
2023/01/06 02:48:11;;;;;;;;;;;11.00;99.90;;;;;;8382757;28;20372;-69
2023/01/06 02:52:21;;;;;;;;;;;10.90;99.90;;;;;;8385197;28;19932;-69
2023/01/06 02:56:24;;;;;;;;;;;10.90;99.90;;;;;;8378846;28;19971;-69
2023/01/06 03:00:32;;;;;;;;;;;10.90;99.90;;;;;;8386646;28;19932;-68
2023/01/06 03:04:36;;;;;;;;;;;10.90;99.90;;;;;;8379999;28;19924;-69
2023/01/06 03:08:38;;;;;;;;;;;10.90;99.90;;;;;;8379208;28;20975;-69
2023/01/06 03:17:43;;;;;;;;;;;10.90;99.90;;;;;;8390205;28;20083;-69
2023/01/06 03:21:46;;;;;;;;;;;10.90;99.90;;;;;;8391655;28;20365;-68
2023/01/06 03:25:48;;;;;;;;;;;10.90;99.90;;;;;;8386375;28;19975;-69
2023/01/06 03:29:49;;;;;;;;;;;10.90;99.90;;;;;;8389836;28;20032;-69
2023/01/06 03:34:03;;;;;;;;;;;10.90;99.90;;;;;;8391604;28;19947;-69
2023/01/06 03:38:21;;;;;;;;;;;10.90;99.90;;;;;;8394427;28;19925;-69
2023/01/06 03:47:09;;;;;;;;;;;10.90;99.90;;;;;;8378663;28;20329;-69
2023/01/06 03:51:20;;;;;;;;;;;10.90;99.90;;;;;;8385262;28;19931;-68
2023/01/06 03:55:24;;;;;;;;;;;10.90;99.90;;;;;;8382973;28;19924;-69
2023/01/06 03:59:28;;;;;;;;;;;10.90;99.90;;;;;;8390127;28;20372;-69
2023/01/06 04:03:29;;;;;;;;;;;10.90;99.90;;;;;;8386519;28;20303;-69
2023/01/06 04:07:31;;;;;;;;;;;10.90;99.90;;;;;;8388226;28;20026;-69
2023/01/06 04:15:53;;;;;;;;;;;10.90;99.90;;;;;;8386216;28;19924;-68
2023/01/06 04:19:55;;;;;;;;;;;10.90;99.90;;;;;;8391868;28;19931;-68
2023/01/06 04:23:56;;;;;;;;;;;10.90;99.90;;;;;;8384788;28;19954;-68
2023/01/06 04:27:58;;;;;;;;;;;10.90;99.90;;;;;;8389197;28;19947;-69
2023/01/06 04:31:59;;;;;;;;;;;10.90;99.90;;;;;;8379746;28;19934;-68
2023/01/06 04:36:01;;;;;;;;;;;10.90;99.90;;;;;;8385149;28;20002;-68
2023/01/06 04:40:03;;;;;;;;;;;10.90;99.90;;;;;;8374035;28;19924;-69
2023/01/06 04:44:05;;;;;;;;;;;10.90;99.90;;;;;;8388613;28;20383;-69
2023/01/06 04:48:07;;;;;;;;;;;10.90;99.90;;;;;;8392495;28;19963;-69
2023/01/06 04:52:09;;;;;;;;;;;10.90;99.90;;;;;;8390540;28;20325;-69
2023/01/06 04:56:11;;;;;;;;;;;10.90;99.90;;;;;;8389263;28;19975;-68
2023/01/06 05:00:13;;;;;;;;;;;10.80;99.90;;;;;;8356081;28;20502;-69
2023/01/06 05:04:14;;;;;;;;;;;10.80;99.90;;;;;;8396637;28;19924;-69
2023/01/06 05:08:16;;;;;;;;;;;10.80;99.90;;;;;;8377048;28;19924;-69
2023/01/06 05:12:17;;;;;;;;;;;10.90;99.90;;;;;;8367938;28;20245;-69
2023/01/06 05:16:22;;;;;;;;;;;10.90;99.90;;;;;;8389963;28;20489;-69
2023/01/06 05:20:23;;;;;;;;;;;11.00;99.90;;;;;;8383695;28;19959;-69
2023/01/06 05:24:25;;;;;;;;;;;11.00;99.90;;;;;;8378776;28;19954;-69
2023/01/06 05:28:28;;;;;;;;;;;11.00;99.90;;;;;;8383264;28;20379;-69
2023/01/06 05:32:31;;;;;;;;;;;11.00;99.90;;;;;;8366699;28;20209;-69
2023/01/06 05:36:33;;;;;;;;;;;11.00;99.90;;;;;;8383789;28;20007;-69
2023/01/06 05:40:34;;;;;;;;;;;10.90;99.90;;;;;;8392173;28;19932;-69
2023/01/06 05:44:36;;;;;;;;;;;10.90;99.90;;;;;;8375893;28;19932;-69
2023/01/06 05:48:38;;;;;;;;;;;10.80;99.90;;;;;;8365025;28;19924;-69
2023/01/06 05:52:40;;;;;;;;;;;10.70;99.90;;;;;;8383211;28;19928;-69
2023/01/06 05:56:41;;;;;;;;;;;10.70;99.90;;;;;;8387965;28;20019;-68
2023/01/06 06:00:43;;;;;;;;;;;10.60;99.90;;;;;;8387975;28;20330;-69
2023/01/06 06:04:45;;;;;;;;;;;10.60;99.90;;;;;;8388380;28;19924;-69
2023/01/06 06:08:47;;;;;;;;;;;10.70;99.90;;;;;;8374564;28;19932;-69
2023/01/06 06:12:50;;;;;;;;;;;10.70;99.90;;;;;;8366119;28;19968;-69
2023/01/06 06:16:52;;;;;;;;;;;10.70;99.90;;;;;;8387832;28;19931;-68
2023/01/06 06:20:58;;;;;;;;;;;10.70;99.90;;;;;;8390993;28;19998;-69
2023/01/06 06:25:00;;;;;;;;;;;10.70;99.90;;;;;;8388480;28;20379;-69
2023/01/06 06:29:03;;;;;;;;;;;10.70;99.90;;;;;;8387084;28;19931;-69
2023/01/06 06:33:05;;;;;;;;;;;10.80;99.90;;;;;;8385763;28;19924;-69
2023/01/06 06:37:07;;;;;;;;;;;10.90;99.90;;;;;;8381845;28;19924;-69
2023/01/06 06:41:08;;;;;;;;;;;10.90;99.90;;;;;;8382502;28;19971;-69
2023/01/06 06:45:10;;;;;;;;;;;10.90;99.90;;;;;;8390249;28;19935;-69
2023/01/06 06:49:12;;;;;;;;;;;10.80;99.90;;;;;;8376039;28;19929;-69
2023/01/06 06:53:13;;;;;;;;;;;10.70;99.90;;;;;;8389653;28;19932;-69
2023/01/06 06:57:15;;;;;;;;;;;10.60;99.90;;;;;;8382678;28;19928;-69
2023/01/06 07:01:18;;;;;;;;;;;10.60;99.90;;;;;;8386329;28;19975;-69
2023/01/06 07:05:20;;;;;;;;;;;10.50;99.90;;;;;;8366459;28;20388;-68
2023/01/06 07:09:22;;;;;;;;;;;10.50;99.90;;;;;;8382250;28;20019;-68
2023/01/06 07:13:24;;;;;;;;;;;10.50;99.90;;;;;;8382274;28;19931;-68
2023/01/06 07:17:26;;;;;;;;;;;10.40;99.90;;;;;;8367921;28;19978;-69
2023/01/06 07:21:28;;;;;;;;;;;10.40;99.90;;;;;;8383972;28;19925;-69
2023/01/06 07:25:30;;;;;;;;;;;10.30;99.90;;;;;;8388697;28;20451;-69
2023/01/06 07:29:31;;;;;;;;;;;10.30;99.90;;;;;;8376009;28;19925;-69
2023/01/06 07:33:33;;;;;;;;;;;10.30;99.90;;;;;;8389962;28;19924;-69
2023/01/06 07:37:35;;;;;;;;;;;10.30;99.90;;;;;;8384126;28;19924;-69
2023/01/06 07:41:36;;;;;;;;;;;10.30;99.90;;;;;;8381278;28;19977;-68
2023/01/06 07:45:38;;;;;;;;;;;10.20;99.90;;;;;;8385103;28;19925;-68
2023/01/06 07:49:39;;;;;;;;;;;10.20;99.90;;;;;;8386435;28;20067;-68
2023/01/06 07:53:41;;;;;;;;;;;10.20;99.90;;;;;;8393421;28;20027;-68
2023/01/06 07:57:42;;;;;;;;;;;10.20;99.90;;;;;;8392801;28;19925;-68
2023/01/06 08:01:44;;;;;;;;;;;10.20;99.90;;;;;;8395790;28;20287;-68
2023/01/06 08:05:46;;;;;;;;;;;10.20;99.90;;;;;;8389897;28;20667;-69
2023/01/06 08:09:48;;;;;;;;;;;10.20;99.90;;;;;;8384597;28;20395;-69
2023/01/06 08:13:49;;;;;;;;;;;10.20;99.90;;;;;;8369151;28;19928;-69
2023/01/06 08:17:52;;;;;;;;;;;10.10;99.90;;;;;;8392646;28;19928;-69
2023/01/06 08:21:53;;;;;;;;;;;10.10;99.90;;;;;;8385170;28;20000;-69
2023/01/06 08:26:02;;;;;;;;;;;10.10;99.90;;;;;;8390480;28;19978;-69
2023/01/06 08:30:05;;;;;;;;;;;10.10;99.90;;;;;;8388384;28;19924;-69
2023/01/06 08:34:06;;;;;;;;;;;10.10;99.90;;;;;;8389496;28;20281;-69
2023/01/06 08:38:08;;;;;;;;;;;10.10;99.90;;;;;;8380488;28;19925;-69
2023/01/06 08:42:10;;;;;;;;;;;10.20;99.90;;;;;;8388774;28;20359;-69
2023/01/06 08:46:13;;;;;;;;;;;10.10;99.90;;;;;;8388426;28;19937;-69
2023/01/06 08:50:15;;;;;;;;;;;10.10;99.90;;;;;;8387610;28;19929;-69
2023/01/06 08:54:16;;;;;;;;;;;10.10;99.90;;;;;;8393253;28;20376;-68
2023/01/06 08:58:18;;;;;;;;;;;10.10;99.90;;;;;;8392880;28;19925;-69
2023/01/06 09:02:20;;;;;;;;;;;10.20;99.90;;;;;;8389487;28;20269;-69
2023/01/06 09:06:21;;;;;;;;;;;10.20;99.90;;;;;;8383942;28;19925;-69
2023/01/06 09:10:23;;;;;;;;;;;10.30;99.90;;;;;;8390332;28;19925;-69
2023/01/06 09:14:25;;;;;;;;;;;10.40;99.90;;;;;;8387718;28;19928;-69
2023/01/06 09:18:26;;;;;;;;;;;10.60;99.90;;;;;;8382137;28;19932;-69
2023/01/06 09:22:28;;;;;;;;;;;10.80;99.90;;;;;;8385206;28;19935;-69
2023/01/06 09:26:29;;;;;;;;;;;10.90;99.90;;;;;;8385391;28;19928;-69
2023/01/06 09:30:31;;;;;;;;;;;11.10;99.90;;;;;;8387006;28;20348;-69
2023/01/06 09:34:33;;;;;;;;;;;11.30;99.90;;;;;;8367678;28;20399;-69
2023/01/06 09:38:35;;;;;;;;;;;11.40;99.90;;;;;;8386035;28;19924;-69
2023/01/06 09:42:55;;;;;;;;;;;11.40;99.90;;;;;;8392057;28;20511;-69
2023/01/06 09:46:58;;;;;;;;;;;11.40;99.90;;;;;;8375230;28;21107;-69
2023/01/06 09:51:02;;;;;;;;;;;11.40;99.90;;;;;;8389961;28;19925;-69
2023/01/06 09:55:04;;;;;;;;;;;11.40;99.90;;;;;;8383158;28;19924;-69
2023/01/06 09:59:24;;;;;;;;;;;11.40;99.90;;;;;;8375766;28;20399;-69
2023/01/06 10:03:26;;;;;;;;;;;11.30;99.90;;;;;;8374066;28;19925;-69
2023/01/06 10:07:33;;;;;;;;;;;11.40;99.90;;;;;;8391057;28;19968;-69
2023/01/06 10:11:53;;;;;;;;;;;11.50;99.90;;;;;;8385432;28;19924;-69
2023/01/06 10:16:08;;;;;;;;;;;11.60;99.90;;;;;;8377452;28;20336;-69
2023/01/06 10:20:25;;;;;;;;;;;11.70;99.90;;;;;;8388145;28;19924;-69
2023/01/06 10:24:45;;;;;;;;;;;11.70;99.90;;;;;;8388150;28;20291;-68
2023/01/06 10:28:52;;;;;;;;;;;11.70;99.90;;;;;;8380927;28;19928;-69
2023/01/06 10:32:55;;;;;;;;;;;11.90;99.90;;;;;;8375986;28;19935;-69
2023/01/06 10:37:10;;;;;;;;;;;12.00;99.90;;;;;;8380288;28;20337;-69
2023/01/06 10:41:23;;;;;;;;;;;12.20;99.90;;;;;;8384075;28;19929;-69
2023/01/06 10:45:27;;;;;;;;;;;12.50;99.90;;;;;;8371217;28;20003;-69
2023/01/06 10:49:29;;;;;;;;;;;12.70;99.90;;;;;;8391564;28;19924;-69
2023/01/06 10:53:31;;;;;;;;;;;13.10;99.90;;;;;;8391314;28;19957;-69
2023/01/06 10:57:35;;;;;;;;;;;13.20;99.90;;;;;;8390269;28;19924;-69
2023/01/06 11:01:53;;;;;;;;;;;13.30;99.90;;;;;;8386244;28;19929;-69
2023/01/06 11:06:13;;;;;;;;;;;13.30;99.90;;;;;;8386579;28;20376;-69
2023/01/06 11:10:23;;;;;;;;;;;13.20;99.90;;;;;;8387576;28;19924;-69
2023/01/06 11:14:27;;;;;;;;;;;13.00;99.90;;;;;;8369557;28;19925;-69
2023/01/06 11:18:29;;;;;;;;;;;13.00;99.90;;;;;;8386452;28;19934;-69
2023/01/06 11:22:33;;;;;;;;;;;12.90;99.90;;;;;;8389166;28;20383;-69
2023/01/06 11:26:42;;;;;;;;;;;13.00;99.90;;;;;;8387417;28;19925;-69
2023/01/06 11:30:51;;;;;;;;;;;13.20;99.90;;;;;;8393339;28;19939;-69
2023/01/06 11:34:58;;;;;;;;;;;13.30;99.90;;;;;;8390383;28;20399;-69
2023/01/06 11:39:11;;;;;;;;;;;13.30;99.90;;;;;;8388374;28;20290;-69
2023/01/06 11:43:14;;;;;;;;;;;13.20;99.90;;;;;;8377139;28;20396;-69
2023/01/06 11:47:25;;;;;;;;;;;13.10;99.90;;;;;;8378581;28;20395;-69
2023/01/06 11:51:31;;;;;;;;;;;12.80;99.90;;;;;;8391094;28;19931;-69
2023/01/06 11:55:33;;;;;;;;;;;12.70;99.90;;;;;;8381840;28;19925;-69
2023/01/06 11:59:45;;;;;;;;;;;12.60;99.90;;;;;;8391990;28;20392;-69
2023/01/06 12:03:47;;;;;;;;;;;12.60;99.90;;;;;;8386268;28;20287;-69
2023/01/06 12:07:51;;;;;;;;;;;12.70;99.90;;;;;;8376986;28;19934;-69
2023/01/06 12:11:54;;;;;;;;;;;12.90;99.90;;;;;;8386260;28;19930;-69
2023/01/06 12:16:02;;;;;;;;;;;13.10;99.90;;;;;;8370839;28;19974;-69
2023/01/06 12:20:19;;;;;;;;;;;13.30;99.90;;;;;;8379762;28;20354;-69
2023/01/06 12:24:22;;;;;;;;;;;13.10;99.90;;;;;;8388446;28;19932;-69
2023/01/06 12:28:30;;;;;;;;;;;13.00;99.90;;;;;;8393310;28;19924;-69
2023/01/06 12:32:36;;;;;;;;;;;13.00;99.90;;;;;;8388268;28;20019;-70
2023/01/06 12:36:41;;;;;;;;;;;13.30;99.90;;;;;;8380741;28;19924;-69
2023/01/06 12:40:51;;;;;;;;;;;13.70;99.90;;;;;;8393827;28;19971;-69
2023/01/06 12:44:57;;;;;;;;;;;13.90;99.90;;;;;;8392406;28;19925;-69
2023/01/06 12:49:01;;;;;;;;;;;13.70;99.90;;;;;;8383761;28;19924;-69
2023/01/06 12:53:17;;;;;;;;;;;13.70;99.90;;;;;;8371710;28;20406;-69
2023/01/06 12:57:21;;;;;;;;;;;14.00;99.90;;;;;;8390943;28;19928;-69
2023/01/06 13:01:28;;;;;;;;;;;14.70;99.90;;;;;;8393591;28;19931;-69
2023/01/06 13:05:42;;;;;;;;;;;15.30;99.90;;;;;;8391834;28;19924;-69
2023/01/06 13:10:00;;;;;;;;;;;15.40;99.90;;;;;;8369175;28;20023;-69
2023/01/06 13:14:05;;;;;;;;;;;15.60;99.90;;;;;;8370187;28;19931;-69
2023/01/06 13:18:18;;;;;;;;;;;15.70;99.90;;;;;;8382874;28;19979;-69
2023/01/06 13:22:35;;;;;;;;;;;16.00;99.90;;;;;;8386149;28;20026;-69
2023/01/06 13:26:46;;;;;;;;;;;16.30;99.90;;;;;;8386861;28;19932;-70
2023/01/06 13:31:03;;;;;;;;;;;16.30;99.90;;;;;;8374424;28;19971;-69
2023/01/06 13:35:17;;;;;;;;;;;15.80;99.90;;;;;;8385593;28;20433;-70
2023/01/06 13:39:21;;;;;;;;;;;14.90;99.90;;;;;;8393240;28;19964;-69
2023/01/06 13:43:26;;;;;;;;;;;14.20;99.90;;;;;;8363268;28;19924;-70
2023/01/06 13:47:28;;;;;;;;;;;13.70;99.90;;;;;;8385189;28;19924;-69
2023/01/06 13:51:32;;;;;;;;;;;13.30;99.90;;;;;;8365700;28;20376;-69
2023/01/06 13:55:37;;;;;;;;;;;13.00;99.90;;;;;;8386466;28;20295;-70
2023/01/06 13:59:49;;;;;;;;;;;12.80;99.90;;;;;;8388780;28;20403;-69
2023/01/06 14:03:51;;;;;;;;;;;12.70;99.90;;;;;;8389208;28;19931;-70
2023/01/06 14:08:02;;;;;;;;;;;12.60;99.90;;;;;;8391895;28;19976;-69
2023/01/06 14:12:14;;;;;;;;;;;12.50;99.90;;;;;;8381485;28;19924;-69
2023/01/06 14:16:15;;;;;;;;;;;12.40;99.90;;;;;;8388359;28;20427;-69
2023/01/06 14:20:25;;;;;;;;;;;12.30;99.90;;;;;;8393359;28;20414;-69
2023/01/06 14:24:30;;;;;;;;;;;12.20;99.90;;;;;;8388919;28;19931;-69
2023/01/06 14:28:32;;;;;;;;;;;12.20;99.90;;;;;;8383864;28;19964;-69
2023/01/06 14:32:34;;;;;;;;;;;12.20;99.90;;;;;;8383142;28;19924;-69
2023/01/06 14:36:35;;;;;;;;;;;12.10;99.90;;;;;;8384720;28;19924;-69
2023/01/06 14:40:39;;;;;;;;;;;12.10;99.90;;;;;;8388637;28;20007;-70
2023/01/06 14:44:46;;;;;;;;;;;12.10;99.90;;;;;;8389710;28;20027;-69
2023/01/06 14:49:08;;;;;;;;;;;12.00;99.90;;;;;;8407007;28;19928;-69
2023/01/06 14:53:16;;;;;;;;;;;11.90;99.90;;;;;;8393370;28;19939;-69
2023/01/06 14:57:33;;;;;;;;;;;11.80;99.90;;;;;;8383003;28;19925;-69
2023/01/06 15:01:36;;;;;;;;;;;11.80;99.90;;;;;;8372160;28;19925;-69
2023/01/06 15:05:38;;;;;;;;;;;11.70;99.90;;;;;;8379543;28;19924;-69
2023/01/06 15:09:40;;;;;;;;;;;11.70;99.90;;;;;;8394552;28;19935;-69
2023/01/06 15:13:42;;;;;;;;;;;11.60;99.90;;;;;;8396070;28;20312;-69
2023/01/06 15:17:44;;;;;;;;;;;11.50;99.90;;;;;;8391598;28;19928;-69
2023/01/06 15:21:47;;;;;;;;;;;11.50;99.90;;;;;;8391634;28;20039;-69
2023/01/06 15:25:52;;;;;;;;;;;11.40;99.90;;;;;;8396061;28;20280;-69
2023/01/06 15:29:55;;;;;;;;;;;11.30;99.90;;;;;;8398799;28;19925;-69
2023/01/06 15:33:57;;;;;;;;;;;11.30;99.90;;;;;;8375320;28;20455;-69
2023/01/06 15:38:03;;;;;;;;;;;11.20;99.90;;;;;;8391821;28;19924;-69
2023/01/06 15:42:06;;;;;;;;;;;11.10;99.90;;;;;;8387016;28;20313;-69
2023/01/06 15:46:11;;;;;;;;;;;11.00;99.90;;;;;;8388383;28;20002;-69
2023/01/06 15:50:17;;;;;;;;;;;11.00;99.90;;;;;;8389887;28;19936;-69
2023/01/06 15:54:19;;;;;;;;;;;10.90;99.90;;;;;;8395241;28;19992;-70
2023/01/06 15:58:22;;;;;;;;;;;10.80;99.90;;;;;;8394911;28;19924;-69
2023/01/06 16:02:25;;;;;;;;;;;10.80;99.90;;;;;;8384978;28;19925;-69
2023/01/06 16:06:28;;;;;;;;;;;10.70;99.90;;;;;;8389702;28;19925;-69
2023/01/06 16:10:34;;;;;;;;;;;10.70;99.90;;;;;;8386632;28;19928;-69
2023/01/06 16:14:39;;;;;;;;;;;10.60;99.90;;;;;;8390877;28;20062;-69
2023/01/06 16:18:41;;;;;;;;;;;10.50;99.90;;;;;;8387317;28;19924;-69
2023/01/06 16:22:47;;;;;;;;;;;10.50;99.90;;;;;;8390398;28;20015;-69
2023/01/06 16:26:52;;;;;;;;;;;10.50;99.90;;;;;;8368656;28;19963;-69
2023/01/06 16:31:23;;;;;;;;;;;10.50;99.90;;;;;;8379621;28;19978;-69
2023/01/06 16:35:26;;;;;;;;;;;10.40;99.90;;;;;;8373038;28;19947;-69
2023/01/06 16:39:27;;;;;;;;;;;10.40;99.90;;;;;;8395080;28;20402;-69
2023/01/06 17:03:48;;;;;;;;;;;10.30;99.90;;;;;;8384518;28;19942;-69
2023/01/06 17:07:51;;;;;;;;;;;10.30;99.90;;;;;;8384780;28;19968;-69
2023/01/06 17:11:53;;;;;;;;;;;10.30;99.90;;;;;;8393892;28;20383;-69
2023/01/06 17:15:58;;;;;;;;;;;10.30;99.90;;;;;;8388916;28;19928;-69
2023/01/06 17:20:01;;;;;;;;;;;10.20;99.90;;;;;;8378570;28;19972;-69
2023/01/06 17:24:16;;;;;;;;;;;10.20;99.90;;;;;;8388810;28;19929;-69
2023/01/06 17:28:19;;;;;;;;;;;10.20;99.90;;;;;;8382228;28;19925;-69
2023/01/06 17:32:22;;;;;;;;;;;10.30;99.90;;;;;;8367232;28;19924;-69
2023/01/06 17:36:28;;;;;;;;;;;10.30;99.90;;;;;;8387989;28;19932;-69
2023/01/06 17:40:33;;;;;;;;;;;10.30;99.90;;;;;;8391212;28;20015;-69
2023/01/06 17:44:36;;;;;;;;;;;10.40;99.90;;;;;;8394467;28;19928;-69
2023/01/06 17:48:38;;;;;;;;;;;10.40;99.90;;;;;;8374791;28;19932;-69
2023/01/06 17:52:40;;;;;;;;;;;10.50;99.90;;;;;;8376642;28;19974;-69
2023/01/06 17:56:41;;;;;;;;;;;10.50;99.90;;;;;;8384517;28;19924;-69
2023/01/06 18:00:43;;;;;;;;;;;10.50;99.90;;;;;;8386522;28;19936;-69
2023/01/06 18:04:45;;;;;;;;;;;10.50;99.90;;;;;;8386213;28;19972;-69
2023/01/06 18:08:48;;;;;;;;;;;10.50;99.90;;;;;;8384420;28;19925;-69
2023/01/06 18:12:51;;;;;;;;;;;10.60;99.90;;;;;;8388290;28;20284;-69
2023/01/06 18:16:55;;;;;;;;;;;10.60;99.90;;;;;;8384072;28;20414;-69
2023/01/06 18:20:59;;;;;;;;;;;10.60;99.90;;;;;;8391699;28;19924;-69
2023/01/06 18:35:15;;;;;;;;;;;10.70;99.90;;;;;;8389233;28;19928;-69
2023/01/06 18:39:19;;;;;;;;;;;10.70;99.90;;;;;;8387666;28;19931;-69
2023/01/06 18:43:24;;;;;;;;;;;10.60;99.90;;;;;;8379602;28;19925;-69
2023/01/06 18:47:27;;;;;;;;;;;10.60;99.90;;;;;;8384108;28;19925;-69
2023/01/06 18:51:30;;;;;;;;;;;10.70;99.90;;;;;;8390412;28;19925;-69
2023/01/06 19:15:47;;;;;;;;;;;10.90;99.90;;;;;;8390206;28;20005;-69
2023/01/06 19:19:51;;;;;;;;;;;10.90;99.90;;;;;;8384836;28;19925;-69
2023/01/06 19:23:53;;;;;;;;;;;11.00;99.90;;;;;;8382434;28;19962;-69
2023/01/06 19:27:54;;;;;;;;;;;11.00;99.90;;;;;;8374835;28;19924;-69
2023/01/06 19:31:58;;;;;;;;;;;11.10;99.90;;;;;;8382829;28;20010;-69
2023/01/06 19:36:03;;;;;;;;;;;11.10;99.90;;;;;;8386821;28;19924;-69
2023/01/06 19:40:17;;;;;;;;;;;11.20;99.90;;;;;;8386376;28;19954;-69
2023/01/06 19:44:22;;;;;;;;;;;11.20;99.90;;;;;;8381939;28;20293;-69
2023/01/06 19:48:30;;;;;;;;;;;11.30;99.90;;;;;;8390247;28;19933;-69
2023/01/06 19:52:36;;;;;;;;;;;11.20;99.90;;;;;;8372505;28;20023;-69
2023/01/06 19:56:39;;;;;;;;;;;11.20;99.90;;;;;;8388683;28;20300;-69
2023/01/06 20:00:46;;;;;;;;;;;11.10;99.90;;;;;;8394125;28;20761;-69
2023/01/06 20:04:48;;;;;;;;;;;11.10;99.90;;;;;;8388099;28;20024;-69
2023/01/06 20:08:53;;;;;;;;;;;11.00;99.90;;;;;;8382329;28;20283;-69
2023/01/06 20:12:55;;;;;;;;;;;11.00;99.90;;;;;;8384803;28;19990;-69
2023/01/06 20:16:58;;;;;;;;;;;11.00;99.90;;;;;;8384263;28;20287;-69
2023/01/06 20:21:00;;;;;;;;;;;11.00;99.90;;;;;;8394191;28;19925;-69
2023/01/06 20:25:04;;;;;;;;;;;11.00;99.90;;;;;;8366634;28;20387;-69
2023/01/06 20:29:06;;;;;;;;;;;11.00;99.90;;;;;;8382381;28;19963;-69
2023/01/06 20:33:07;;;;;;;;;;;11.10;99.90;;;;;;8388027;28;19979;-69
2023/01/06 20:37:09;;;;;;;;;;;11.20;99.90;;;;;;8386266;28;20328;-69
2023/01/06 20:41:11;;;;;;;;;;;11.10;99.90;;;;;;8383472;28;20525;-69
2023/01/06 20:45:13;;;;;;;;;;;11.20;99.90;;;;;;8363540;28;19955;-69
2023/01/06 20:49:16;;;;;;;;;;;11.20;99.90;;;;;;8388845;28;19930;-69
2023/01/06 20:53:18;;;;;;;;;;;11.30;99.90;;;;;;8374621;28;20023;-69
2023/01/06 20:57:19;;;;;;;;;;;11.30;99.90;;;;;;8389141;28;19937;-69
2023/01/06 21:01:21;;;;;;;;;;;11.40;99.90;;;;;;8392849;28;19976;-69
2023/01/06 21:05:23;;;;;;;;;;;11.40;99.90;;;;;;8381756;28;19932;-69
2023/01/06 21:09:27;;;;;;;;;;;11.40;99.90;;;;;;8380528;28;19972;-68
2023/01/06 21:13:28;;;;;;;;;;;11.40;99.90;;;;;;8381584;28;20077;-69
2023/01/06 21:17:30;;;;;;;;;;;11.30;99.90;;;;;;8380160;28;19939;-68
2023/01/06 21:21:31;;;;;;;;;;;11.30;99.90;;;;;;8381134;28;20023;-69
2023/01/06 21:25:33;;;;;;;;;;;11.30;99.90;;;;;;8370911;28;19924;-69
2023/01/06 21:29:35;;;;;;;;;;;11.30;99.90;;;;;;8383750;28;19931;-69
2023/01/06 21:33:36;;;;;;;;;;;11.30;99.90;;;;;;8387693;28;19972;-69
2023/01/06 21:37:38;;;;;;;;;;;11.40;99.90;;;;;;8389569;28;20322;-69
2023/01/06 21:46:28;;;;;;;;;;;11.40;99.90;;;;;;8381473;28;19929;-68
2023/01/06 21:50:31;;;;;;;;;;;11.40;99.90;;;;;;8383279;28;19931;-69
2023/01/06 21:54:33;;;;;;;;;;;11.40;99.90;;;;;;8369247;28;19939;-69
2023/01/06 21:58:34;;;;;;;;;;;11.40;99.90;;;;;;8393092;28;20382;-69
2023/01/06 22:02:36;;;;;;;;;;;11.40;99.90;;;;;;8374860;28;19935;-69
2023/01/06 22:06:39;;;;;;;;;;;11.40;99.90;;;;;;8388079;28;19940;-69
2023/01/06 22:10:41;;;;;;;;;;;11.40;99.90;;;;;;8376727;28;19925;-69
2023/01/06 22:14:43;;;;;;;;;;;11.40;99.90;;;;;;8384471;28;20290;-69
2023/01/06 22:18:45;;;;;;;;;;;11.40;99.90;;;;;;8371346;28;19924;-69
2023/01/06 22:22:46;;;;;;;;;;;11.40;99.90;;;;;;8385132;28;19924;-69
2023/01/06 22:26:48;;;;;;;;;;;11.40;99.90;;;;;;8377452;28;19928;-69
2023/01/06 22:30:51;;;;;;;;;;;11.40;99.90;;;;;;8383918;28;19925;-69
2023/01/06 22:34:53;;;;;;;;;;;11.40;99.90;;;;;;8369866;28;19925;-69
2023/01/06 22:38:54;;;;;;;;;;;11.40;99.90;;;;;;8381699;28;20359;-69
2023/01/06 22:42:56;;;;;;;;;;;11.50;99.90;;;;;;8390378;28;20431;-69
2023/01/06 22:46:58;;;;;;;;;;;11.50;99.90;;;;;;8388477;28;19924;-69
2023/01/06 22:51:00;;;;;;;;;;;11.50;99.90;;;;;;8391281;28;19924;-69
2023/01/06 22:55:02;;;;;;;;;;;11.40;99.90;;;;;;8379477;28;20357;-69
2023/01/06 22:59:04;;;;;;;;;;;11.30;99.90;;;;;;8379314;28;20004;-68
2023/01/06 23:03:06;;;;;;;;;;;11.30;99.90;;;;;;8387109;28;19985;-68
2023/01/06 23:07:07;;;;;;;;;;;11.30;99.90;;;;;;8388617;28;19924;-69
2023/01/06 23:11:11;;;;;;;;;;;11.20;99.90;;;;;;8389972;28;19928;-69
2023/01/06 23:30:21;;;;;;;;;;;11.10;99.90;;;;;;8392911;28;19920;-68
2023/01/06 23:34:23;;;;;;;;;;;11.10;99.90;;;;;;8398053;28;19924;-68
2023/01/06 23:38:25;;;;;;;;;;;11.00;99.90;;;;;;8387862;28;19925;-69
2023/01/06 23:42:26;;;;;;;;;;;11.00;99.90;;;;;;8393476;28;19924;-68
2023/01/06 23:57:16;;;;;;;;;;;10.90;99.90;;;;;;8390646;28;19924;-68
